Terminal Aerodrome Forecast
Issued by NWS Portland, OR

Home | Current Version | Previous Version | Text Only | Print | Product List | Glossary On
Versions: 1 2 3 4 5 6 7 8 9 10 11 12 13 14 15 16 17 18 19 20 21 22 23 24 25 26 27 28 29 30 31 32 33 34 35
169
FTUS46 KPQR 271140
TAFTTD
TAF
KTTD 271140Z 2712/2812 VRB03KT P6SM OVC024
     FM271900 26003KT P6SM OVC035
     FM272000 26003KT P6SM BKN050
     FM272100 25006KT P6SM FEW050=

USA.gov is the U.S. government's official web portal to all federal, state and local government web resources and services.